sensor_id;sensor_type;location;lat;lon;timestamp;pressure;altitude;pressure_sealevel;temperature;humidity
5814;BME280;2933;52.302;8.134;2022-10-03T00:03:21;101429.09;;;9.02;100.00
5814;BME280;2933;52.302;8.134;2022-10-03T00:08:45;101429.25;;;8.99;100.00
5814;BME280;2933;52.302;8.134;2022-10-03T00:13:56;101447.31;;;9.04;100.00
5814;BME280;2933;52.302;8.134;2022-10-03T00:19:05;101445.03;;;8.95;100.00
5814;BME280;2933;52.302;8.134;2022-10-03T00:24:22;101448.56;;;8.94;100.00
5814;BME280;2933;52.302;8.134;2022-10-03T00:29:38;101456.81;;;8.83;100.00
5814;BME280;2933;52.302;8.134;2022-10-03T00:40:34;101456.59;;;8.65;100.00
5814;BME280;2933;52.302;8.134;2022-10-03T00:46:08;101441.81;;;8.66;100.00
5814;BME280;2933;52.302;8.134;2022-10-03T00:51:24;101455.94;;;8.82;100.00
5814;BME280;2933;52.302;8.134;2022-10-03T00:56:45;101469.94;;;8.56;100.00
5814;BME280;2933;52.302;8.134;2022-10-03T01:01:52;101485.63;;;8.54;100.00
5814;BME280;2933;52.302;8.134;2022-10-03T01:07:03;101480.41;;;8.54;100.00
5814;BME280;2933;52.302;8.134;2022-10-03T01:12:31;101487.38;;;8.54;100.00
5814;BME280;2933;52.302;8.134;2022-10-03T01:17:47;101492.63;;;8.52;100.00
5814;BME280;2933;52.302;8.134;2022-10-03T01:23:05;101490.25;;;8.46;100.00
5814;BME280;2933;52.302;8.134;2022-10-03T01:28:28;101496.66;;;8.61;100.00
5814;BME280;2933;52.302;8.134;2022-10-03T01:33:59;101494.66;;;8.44;100.00
5814;BME280;2933;52.302;8.134;2022-10-03T01:39:08;101500.69;;;8.45;100.00
5814;BME280;2933;52.302;8.134;2022-10-03T01:44:19;101509.34;;;8.45;100.00
5814;BME280;2933;52.302;8.134;2022-10-03T01:49:26;101506.75;;;8.47;100.00
5814;BME280;2933;52.302;8.134;2022-10-03T01:54:39;101507.59;;;8.47;100.00
5814;BME280;2933;52.302;8.134;2022-10-03T01:59:51;101507.91;;;8.38;100.00
5814;BME280;2933;52.302;8.134;2022-10-03T02:05:01;101521.00;;;8.35;100.00
5814;BME280;2933;52.302;8.134;2022-10-03T02:10:10;101531.13;;;8.43;100.00
5814;BME280;2933;52.302;8.134;2022-10-03T02:15:18;101541.53;;;8.44;100.00
5814;BME280;2933;52.302;8.134;2022-10-03T02:20:31;101532.09;;;8.40;100.00
5814;BME280;2933;52.302;8.134;2022-10-03T02:25:50;101530.41;;;8.39;100.00
5814;BME280;2933;52.302;8.134;2022-10-03T02:31:15;101544.78;;;8.25;100.00
5814;BME280;2933;52.302;8.134;2022-10-03T02:36:47;101531.91;;;8.21;100.00
5814;BME280;2933;52.302;8.134;2022-10-03T02:42:22;101538.75;;;8.23;100.00
5814;BME280;2933;52.302;8.134;2022-10-03T02:47:48;101534.56;;;8.19;100.00
5814;BME280;2933;52.302;8.134;2022-10-03T02:59:03;101539.22;;;8.09;100.00
5814;BME280;2933;52.302;8.134;2022-10-03T03:10:08;101550.22;;;8.18;100.00
5814;BME280;2933;52.302;8.134;2022-10-03T03:15:45;101562.31;;;8.19;100.00
5814;BME280;2933;52.302;8.134;2022-10-03T03:21:09;101553.41;;;8.01;100.00
5814;BME280;2933;52.302;8.134;2022-10-03T03:31:54;101566.88;;;7.85;100.00
5814;BME280;2933;52.302;8.134;2022-10-03T03:37:08;101568.16;;;7.73;100.00
5814;BME280;2933;52.302;8.134;2022-10-03T03:42:38;101575.03;;;7.74;100.00
5814;BME280;2933;52.302;8.134;2022-10-03T03:53:41;101573.19;;;7.78;100.00
5814;BME280;2933;52.302;8.134;2022-10-03T03:58:50;101569.81;;;7.74;100.00
5814;BME280;2933;52.302;8.134;2022-10-03T04:04:02;101568.53;;;7.61;100.00
5814;BME280;2933;52.302;8.134;2022-10-03T04:15:02;101578.19;;;7.57;100.00
5814;BME280;2933;52.302;8.134;2022-10-03T04:20:13;101571.81;;;7.38;100.00
5814;BME280;2933;52.302;8.134;2022-10-03T04:25:30;101586.72;;;7.33;100.00
5814;BME280;2933;52.302;8.134;2022-10-03T04:30:46;101595.31;;;7.35;100.00
5814;BME280;2933;52.302;8.134;2022-10-03T04:36:14;101596.41;;;7.27;100.00
5814;BME280;2933;52.302;8.134;2022-10-03T04:41:32;101597.88;;;7.36;100.00
5814;BME280;2933;52.302;8.134;2022-10-03T04:46:42;101598.09;;;7.28;100.00
5814;BME280;2933;52.302;8.134;2022-10-03T04:51:52;101590.19;;;7.32;100.00
5814;BME280;2933;52.302;8.134;2022-10-03T04:57:04;101602.44;;;7.28;100.00
5814;BME280;2933;52.302;8.134;2022-10-03T05:02:24;101589.78;;;7.16;100.00
5814;BME280;2933;52.302;8.134;2022-10-03T05:07:35;101611.09;;;7.28;100.00
5814;BME280;2933;52.302;8.134;2022-10-03T05:12:49;101611.53;;;7.43;100.00
5814;BME280;2933;52.302;8.134;2022-10-03T05:18:00;101620.34;;;7.67;100.00
5814;BME280;2933;52.302;8.134;2022-10-03T05:23:13;101613.78;;;7.84;100.00
5814;BME280;2933;52.302;8.134;2022-10-03T05:28:29;101621.28;;;7.93;100.00
5814;BME280;2933;52.302;8.134;2022-10-03T05:33:41;101638.00;;;8.13;100.00
5814;BME280;2933;52.302;8.134;2022-10-03T05:39:18;101648.38;;;8.14;100.00
5814;BME280;2933;52.302;8.134;2022-10-03T05:44:32;101638.63;;;8.21;100.00
5814;BME280;2933;52.302;8.134;2022-10-03T05:49:51;101645.34;;;8.28;100.00
5814;BME280;2933;52.302;8.134;2022-10-03T05:55:07;101649.75;;;8.26;100.00
5814;BME280;2933;52.302;8.134;2022-10-03T06:00:22;101650.78;;;8.20;100.00
5814;BME280;2933;52.302;8.134;2022-10-03T06:05:29;101657.75;;;8.20;100.00
5814;BME280;2933;52.302;8.134;2022-10-03T06:10:42;101654.88;;;8.28;100.00
5814;BME280;2933;52.302;8.134;2022-10-03T06:15:53;101649.63;;;8.29;100.00
5814;BME280;2933;52.302;8.134;2022-10-03T06:21:23;101654.81;;;8.29;100.00
5814;BME280;2933;52.302;8.134;2022-10-03T06:26:44;101654.13;;;8.24;100.00
5814;BME280;2933;52.302;8.134;2022-10-03T06:32:30;101661.66;;;8.33;100.00
5814;BME280;2933;52.302;8.134;2022-10-03T06:38:00;101665.41;;;8.51;100.00
5814;BME280;2933;52.302;8.134;2022-10-03T06:43:32;101672.81;;;8.65;100.00
5814;BME280;2933;52.302;8.134;2022-10-03T06:49:09;101672.00;;;8.88;100.00
5814;BME280;2933;52.302;8.134;2022-10-03T07:00:10;101670.03;;;8.95;100.00
5814;BME280;2933;52.302;8.134;2022-10-03T07:11:11;101680.25;;;9.01;100.00
5814;BME280;2933;52.302;8.134;2022-10-03T07:16:37;101688.75;;;9.07;100.00
5814;BME280;2933;52.302;8.134;2022-10-03T07:22:26;101694.13;;;9.02;100.00
5814;BME280;2933;52.302;8.134;2022-10-03T07:27:49;101701.56;;;9.13;100.00
5814;BME280;2933;52.302;8.134;2022-10-03T07:39:03;101716.69;;;9.03;100.00
5814;BME280;2933;52.302;8.134;2022-10-03T07:44:23;101715.63;;;9.32;100.00
5814;BME280;2933;52.302;8.134;2022-10-03T07:49:47;101723.72;;;9.50;100.00
5814;BME280;2933;52.302;8.134;2022-10-03T07:55:16;101728.84;;;9.99;100.00
5814;BME280;2933;52.302;8.134;2022-10-03T08:00:23;101729.09;;;10.15;100.00
5814;BME280;2933;52.302;8.134;2022-10-03T08:05:38;101720.88;;;10.24;100.00
5814;BME280;2933;52.302;8.134;2022-10-03T08:11:02;101732.50;;;10.17;100.00
5814;BME280;2933;52.302;8.134;2022-10-03T08:16:23;101738.19;;;10.50;100.00
5814;BME280;2933;52.302;8.134;2022-10-03T08:21:46;101746.28;;;10.44;100.00
5814;BME280;2933;52.302;8.134;2022-10-03T08:27:14;101745.47;;;10.64;100.00
5814;BME280;2933;52.302;8.134;2022-10-03T08:32:44;101750.19;;;10.77;100.00
5814;BME280;2933;52.302;8.134;2022-10-03T08:38:19;101737.28;;;10.72;100.00
5814;BME280;2933;52.302;8.134;2022-10-03T08:49:28;101755.22;;;11.23;100.00
5814;BME280;2933;52.302;8.134;2022-10-03T08:54:57;101748.13;;;11.45;100.00
5814;BME280;2933;52.302;8.134;2022-10-03T09:00:18;101759.34;;;11.87;100.00
5814;BME280;2933;52.302;8.134;2022-10-03T09:05:46;101767.31;;;12.05;100.00
5814;BME280;2933;52.302;8.134;2022-10-03T09:11:10;101757.66;;;12.05;100.00
5814;BME280;2933;52.302;8.134;2022-10-03T09:16:44;101755.00;;;12.24;100.00
5814;BME280;2933;52.302;8.134;2022-10-03T09:22:45;101765.78;;;12.37;100.00
5814;BME280;2933;52.302;8.134;2022-10-03T09:28:34;101769.50;;;12.51;100.00
5814;BME280;2933;52.302;8.134;2022-10-03T09:40:12;101761.44;;;12.90;96.62
5814;BME280;2933;52.302;8.134;2022-10-03T09:45:40;101764.44;;;13.18;93.13
5814;BME280;2933;52.302;8.134;2022-10-03T09:51:14;101765.19;;;13.37;91.16
5814;BME280;2933;52.302;8.134;2022-10-03T09:56:37;101754.22;;;13.29;92.53
5814;BME280;2933;52.302;8.134;2022-10-03T10:01:47;101751.91;;;13.23;89.53
5814;BME280;2933;52.302;8.134;2022-10-03T10:13:20;101759.78;;;13.90;89.33
5814;BME280;2933;52.302;8.134;2022-10-03T10:18:37;101756.47;;;13.86;86.38
5814;BME280;2933;52.302;8.134;2022-10-03T10:23:52;101750.38;;;14.02;85.73
5814;BME280;2933;52.302;8.134;2022-10-03T10:29:20;101743.16;;;14.21;83.33
5814;BME280;2933;52.302;8.134;2022-10-03T10:35:06;101744.88;;;14.22;79.49
5814;BME280;2933;52.302;8.134;2022-10-03T10:57:51;101731.41;;;13.97;77.76
5814;BME280;2933;52.302;8.134;2022-10-03T11:09:01;101710.09;;;14.64;73.20
5814;BME280;2933;52.302;8.134;2022-10-03T11:20:20;101726.72;;;13.86;74.06
5814;BME280;2933;52.302;8.134;2022-10-03T11:25:58;101722.50;;;13.83;74.59
5814;BME280;2933;52.302;8.134;2022-10-03T11:31:40;101716.66;;;13.78;73.80
5814;BME280;2933;52.302;8.134;2022-10-03T11:37:03;101711.88;;;13.85;73.53
5814;BME280;2933;52.302;8.134;2022-10-03T11:42:16;101702.69;;;13.94;74.66
5814;BME280;2933;52.302;8.134;2022-10-03T11:47:44;101714.84;;;14.27;71.43
5814;BME280;2933;52.302;8.134;2022-10-03T11:53:06;101706.78;;;14.60;70.42
5814;BME280;2933;52.302;8.134;2022-10-03T11:58:26;101711.81;;;14.79;70.69
5814;BME280;2933;52.302;8.134;2022-10-03T12:03:35;101706.63;;;15.08;70.87
5814;BME280;2933;52.302;8.134;2022-10-03T12:08:51;101716.19;;;15.09;69.18
5814;BME280;2933;52.302;8.134;2022-10-03T12:14:23;101714.88;;;14.88;69.81
5814;BME280;2933;52.302;8.134;2022-10-03T12:19:32;101709.59;;;14.57;70.06
5814;BME280;2933;52.302;8.134;2022-10-03T12:24:39;101718.22;;;14.59;71.35
5814;BME280;2933;52.302;8.134;2022-10-03T12:29:52;101705.00;;;14.61;71.89
5814;BME280;2933;52.302;8.134;2022-10-03T12:35:20;101707.97;;;14.70;72.21
5814;BME280;2933;52.302;8.134;2022-10-03T12:40:33;101702.84;;;14.83;70.74
5814;BME280;2933;52.302;8.134;2022-10-03T12:45:39;101693.03;;;14.71;73.00
5814;BME280;2933;52.302;8.134;2022-10-03T12:50:46;101705.09;;;15.04;71.46
5814;BME280;2933;52.302;8.134;2022-10-03T12:56:15;101706.41;;;15.40;69.17
5814;BME280;2933;52.302;8.134;2022-10-03T13:01:31;101699.44;;;15.68;68.51
5814;BME280;2933;52.302;8.134;2022-10-03T13:06:41;101705.44;;;15.70;66.94
5814;BME280;2933;52.302;8.134;2022-10-03T13:11:56;101704.50;;;15.71;68.50
5814;BME280;2933;52.302;8.134;2022-10-03T13:17:07;101693.06;;;15.58;67.72
5814;BME280;2933;52.302;8.134;2022-10-03T13:22:24;101707.13;;;15.71;68.06
5814;BME280;2933;52.302;8.134;2022-10-03T13:27:36;101708.50;;;15.49;69.95
5814;BME280;2933;52.302;8.134;2022-10-03T13:32:43;101704.84;;;15.09;69.47
5814;BME280;2933;52.302;8.134;2022-10-03T13:38:28;101706.91;;;15.18;69.70
5814;BME280;2933;52.302;8.134;2022-10-03T13:43:37;101708.97;;;15.27;69.92
5814;BME280;2933;52.302;8.134;2022-10-03T13:48:41;101694.38;;;15.22;69.38
5814;BME280;2933;52.302;8.134;2022-10-03T13:53:57;101692.63;;;15.22;70.07
5814;BME280;2933;52.302;8.134;2022-10-03T13:59:08;101696.84;;;15.10;69.90
5814;BME280;2933;52.302;8.134;2022-10-03T14:04:27;101694.75;;;14.86;71.39
5814;BME280;2933;52.302;8.134;2022-10-03T14:09:40;101688.16;;;14.79;70.58
5814;BME280;2933;52.302;8.134;2022-10-03T14:15:15;101683.00;;;14.78;73.65
5814;BME280;2933;52.302;8.134;2022-10-03T14:20:24;101687.25;;;14.95;70.42
5814;BME280;2933;52.302;8.134;2022-10-03T14:25:34;101684.41;;;14.98;72.41
5814;BME280;2933;52.302;8.134;2022-10-03T14:30:53;101681.78;;;14.98;70.51
5814;BME280;2933;52.302;8.134;2022-10-03T14:36:14;101669.66;;;14.81;70.09
5814;BME280;2933;52.302;8.134;2022-10-03T14:41:20;101670.03;;;14.89;69.95
5814;BME280;2933;52.302;8.134;2022-10-03T14:46:30;101671.09;;;15.01;71.30
5814;BME280;2933;52.302;8.134;2022-10-03T14:51:36;101677.03;;;15.05;69.20
5814;BME280;2933;52.302;8.134;2022-10-03T14:56:41;101668.34;;;14.88;72.78
5814;BME280;2933;52.302;8.134;2022-10-03T15:01:50;101669.38;;;14.71;73.07
5814;BME280;2933;52.302;8.134;2022-10-03T15:06:54;101664.94;;;14.72;74.03
5814;BME280;2933;52.302;8.134;2022-10-03T15:12:01;101666.66;;;14.42;73.13
5814;BME280;2933;52.302;8.134;2022-10-03T15:17:16;101665.44;;;14.48;74.22
5814;BME280;2933;52.302;8.134;2022-10-03T15:22:27;101658.09;;;14.38;74.65
5814;BME280;2933;52.302;8.134;2022-10-03T15:27:32;101652.16;;;14.35;73.45
5814;BME280;2933;52.302;8.134;2022-10-03T15:32:38;101646.91;;;14.35;76.10
5814;BME280;2933;52.302;8.134;2022-10-03T15:37:45;101641.16;;;14.28;77.87
5814;BME280;2933;52.302;8.134;2022-10-03T15:42:51;101634.03;;;14.30;78.27
5814;BME280;2933;52.302;8.134;2022-10-03T15:48:04;101634.97;;;14.29;79.15
5814;BME280;2933;52.302;8.134;2022-10-03T15:53:07;101633.97;;;14.16;80.45
5814;BME280;2933;52.302;8.134;2022-10-03T15:58:14;101618.41;;;14.13;79.98
5814;BME280;2933;52.302;8.134;2022-10-03T16:03:24;101615.44;;;14.03;80.51
5814;BME280;2933;52.302;8.134;2022-10-03T16:08:28;101615.31;;;13.90;81.19
5814;BME280;2933;52.302;8.134;2022-10-03T16:13:35;101618.44;;;13.81;82.39
5814;BME280;2933;52.302;8.134;2022-10-03T16:18:45;101613.44;;;13.76;82.38
5814;BME280;2933;52.302;8.134;2022-10-03T16:23:50;101613.06;;;13.68;82.96
5814;BME280;2933;52.302;8.134;2022-10-03T16:29:02;101612.13;;;13.53;82.92
5814;BME280;2933;52.302;8.134;2022-10-03T16:34:14;101604.59;;;13.47;83.56
5814;BME280;2933;52.302;8.134;2022-10-03T16:39:19;101589.19;;;13.40;83.53
5814;BME280;2933;52.302;8.134;2022-10-03T16:44:27;101590.84;;;13.25;84.49
5814;BME280;2933;52.302;8.134;2022-10-03T16:49:42;101592.59;;;13.09;86.10
5814;BME280;2933;52.302;8.134;2022-10-03T16:55:04;101598.34;;;13.00;86.94
5814;BME280;2933;52.302;8.134;2022-10-03T17:00:13;101605.94;;;12.88;88.56
5814;BME280;2933;52.302;8.134;2022-10-03T17:05:18;101609.97;;;12.78;89.45
5814;BME280;2933;52.302;8.134;2022-10-03T17:10:29;101602.69;;;12.50;91.90
5814;BME280;2933;52.302;8.134;2022-10-03T17:15:34;101597.47;;;12.32;93.96
5814;BME280;2933;52.302;8.134;2022-10-03T17:20:44;101598.91;;;12.38;93.36
5814;BME280;2933;52.302;8.134;2022-10-03T17:25:57;101602.53;;;12.18;95.09
5814;BME280;2933;52.302;8.134;2022-10-03T17:31:03;101591.91;;;11.84;97.39
5814;BME280;2933;52.302;8.134;2022-10-03T17:36:49;101584.31;;;11.60;98.29
5814;BME280;2933;52.302;8.134;2022-10-03T17:41:59;101606.03;;;11.43;99.12
5814;BME280;2933;52.302;8.134;2022-10-03T17:47:08;101597.63;;;11.37;100.00
5814;BME280;2933;52.302;8.134;2022-10-03T17:52:15;101599.75;;;11.28;100.00
5814;BME280;2933;52.302;8.134;2022-10-03T17:57:21;101593.47;;;11.13;100.00
5814;BME280;2933;52.302;8.134;2022-10-03T18:02:32;101596.63;;;11.01;100.00
5814;BME280;2933;52.302;8.134;2022-10-03T18:07:38;101599.50;;;10.95;100.00
5814;BME280;2933;52.302;8.134;2022-10-03T18:12:42;101575.34;;;10.90;100.00
5814;BME280;2933;52.302;8.134;2022-10-03T18:17:57;101591.75;;;10.93;100.00
5814;BME280;2933;52.302;8.134;2022-10-03T18:23:04;101594.66;;;10.66;100.00
5814;BME280;2933;52.302;8.134;2022-10-03T18:28:15;101583.91;;;10.54;100.00
5814;BME280;2933;52.302;8.134;2022-10-03T18:33:23;101589.56;;;10.43;100.00
5814;BME280;2933;52.302;8.134;2022-10-03T18:38:28;101581.09;;;10.38;100.00
5814;BME280;2933;52.302;8.134;2022-10-03T18:43:33;101585.06;;;10.26;100.00
5814;BME280;2933;52.302;8.134;2022-10-03T18:48:44;101588.16;;;10.13;100.00
5814;BME280;2933;52.302;8.134;2022-10-03T18:53:52;101577.31;;;10.02;100.00
5814;BME280;2933;52.302;8.134;2022-10-03T18:59:08;101573.88;;;9.79;100.00
5814;BME280;2933;52.302;8.134;2022-10-03T19:04:14;101584.94;;;9.86;100.00
5814;BME280;2933;52.302;8.134;2022-10-03T19:09:24;101564.78;;;9.67;100.00
5814;BME280;2933;52.302;8.134;2022-10-03T19:14:30;101577.03;;;9.65;100.00
5814;BME280;2933;52.302;8.134;2022-10-03T19:19:46;101566.25;;;9.52;100.00
5814;BME280;2933;52.302;8.134;2022-10-03T19:24:51;101584.00;;;9.43;100.00
5814;BME280;2933;52.302;8.134;2022-10-03T19:29:55;101589.88;;;9.48;100.00
5814;BME280;2933;52.302;8.134;2022-10-03T19:34:59;101582.63;;;9.32;100.00
5814;BME280;2933;52.302;8.134;2022-10-03T19:40:12;101579.31;;;9.29;100.00
5814;BME280;2933;52.302;8.134;2022-10-03T19:45:15;101576.06;;;9.22;100.00
5814;BME280;2933;52.302;8.134;2022-10-03T19:50:20;101575.31;;;9.20;100.00
5814;BME280;2933;52.302;8.134;2022-10-03T19:55:31;101576.59;;;9.08;100.00
5814;BME280;2933;52.302;8.134;2022-10-03T20:00:38;101573.16;;;9.08;100.00
5814;BME280;2933;52.302;8.134;2022-10-03T20:05:45;101568.19;;;9.00;100.00
5814;BME280;2933;52.302;8.134;2022-10-03T20:11:13;101575.19;;;8.99;100.00
5814;BME280;2933;52.302;8.134;2022-10-03T20:16:18;101569.75;;;9.05;100.00
5814;BME280;2933;52.302;8.134;2022-10-03T20:21:24;101571.09;;;8.92;100.00
5814;BME280;2933;52.302;8.134;2022-10-03T20:26:32;101556.03;;;9.00;100.00
5814;BME280;2933;52.302;8.134;2022-10-03T20:31:37;101551.38;;;9.09;100.00
5814;BME280;2933;52.302;8.134;2022-10-03T20:36:40;101558.13;;;9.14;100.00
5814;BME280;2933;52.302;8.134;2022-10-03T20:41:56;101557.69;;;9.03;100.00
5814;BME280;2933;52.302;8.134;2022-10-03T20:47:03;101572.88;;;8.92;100.00
5814;BME280;2933;52.302;8.134;2022-10-03T20:52:15;101572.13;;;8.88;100.00
5814;BME280;2933;52.302;8.134;2022-10-03T20:57:22;101560.91;;;8.86;100.00
5814;BME280;2933;52.302;8.134;2022-10-03T21:02:28;101554.88;;;8.60;100.00
5814;BME280;2933;52.302;8.134;2022-10-03T21:07:35;101558.66;;;8.77;100.00
5814;BME280;2933;52.302;8.134;2022-10-03T21:12:44;101546.00;;;8.89;100.00
5814;BME280;2933;52.302;8.134;2022-10-03T21:17:47;101545.63;;;8.77;100.00
5814;BME280;2933;52.302;8.134;2022-10-03T21:22:51;101560.78;;;8.65;100.00
5814;BME280;2933;52.302;8.134;2022-10-03T21:27:56;101562.00;;;8.55;100.00
5814;BME280;2933;52.302;8.134;2022-10-03T21:32:59;101567.41;;;8.49;100.00
5814;BME280;2933;52.302;8.134;2022-10-03T21:38:14;101555.34;;;8.46;100.00
5814;BME280;2933;52.302;8.134;2022-10-03T21:43:32;101554.31;;;8.25;100.00
5814;BME280;2933;52.302;8.134;2022-10-03T21:48:47;101547.19;;;8.30;100.00
5814;BME280;2933;52.302;8.134;2022-10-03T21:53:58;101543.75;;;8.30;100.00
5814;BME280;2933;52.302;8.134;2022-10-03T21:59:20;101522.72;;;8.11;100.00
5814;BME280;2933;52.302;8.134;2022-10-03T22:04:31;101533.16;;;8.09;100.00
5814;BME280;2933;52.302;8.134;2022-10-03T22:09:43;101541.28;;;8.25;100.00
5814;BME280;2933;52.302;8.134;2022-10-03T22:14:52;101539.25;;;8.08;100.00
5814;BME280;2933;52.302;8.134;2022-10-03T22:20:04;101535.22;;;7.99;100.00
5814;BME280;2933;52.302;8.134;2022-10-03T22:25:29;101536.63;;;8.09;100.00
5814;BME280;2933;52.302;8.134;2022-10-03T22:30:39;101540.88;;;8.12;100.00
5814;BME280;2933;52.302;8.134;2022-10-03T22:35:50;101546.78;;;8.17;100.00
5814;BME280;2933;52.302;8.134;2022-10-03T22:40:54;101544.09;;;8.19;100.00
5814;BME280;2933;52.302;8.134;2022-10-03T22:45:58;101491.16;;;7.95;100.00
5814;BME280;2933;52.302;8.134;2022-10-03T22:51:02;101531.63;;;8.29;100.00
5814;BME280;2933;52.302;8.134;2022-10-03T22:56:36;101505.28;;;8.13;100.00
5814;BME280;2933;52.302;8.134;2022-10-03T23:01:44;101507.97;;;8.35;100.00
5814;BME280;2933;52.302;8.134;2022-10-03T23:07:02;101508.94;;;8.32;100.00
5814;BME280;2933;52.302;8.134;2022-10-03T23:12:08;101510.88;;;8.27;100.00
5814;BME280;2933;52.302;8.134;2022-10-03T23:17:35;101514.22;;;8.31;100.00
5814;BME280;2933;52.302;8.134;2022-10-03T23:22:44;101509.78;;;8.33;100.00
5814;BME280;2933;52.302;8.134;2022-10-03T23:28:09;101499.28;;;8.36;100.00
5814;BME280;2933;52.302;8.134;2022-10-03T23:33:47;101489.59;;;8.39;100.00
5814;BME280;2933;52.302;8.134;2022-10-03T23:38:57;101470.41;;;8.42;100.00
5814;BME280;2933;52.302;8.134;2022-10-03T23:44:00;101459.81;;;8.48;100.00
5814;BME280;2933;52.302;8.134;2022-10-03T23:49:04;101466.75;;;8.48;100.00
5814;BME280;2933;52.302;8.134;2022-10-03T23:54:10;101456.34;;;8.48;100.00
5814;BME280;2933;52.302;8.134;2022-10-03T23:59:20;101461.28;;;8.55;100.00
